createdAt,value
2018-08-06T00:00:41.713Z,22.70
2018-08-06T00:03:10.409Z,22.66
2018-08-06T00:05:38.986Z,22.57
2018-08-06T00:08:07.972Z,22.55
2018-08-06T00:10:36.564Z,22.53
2018-08-06T00:13:05.165Z,22.52
2018-08-06T00:15:33.707Z,22.47
2018-08-06T00:18:02.276Z,22.47
2018-08-06T00:20:30.866Z,22.35
2018-08-06T00:22:59.436Z,22.33
2018-08-06T00:25:27.949Z,22.38
2018-08-06T00:27:56.509Z,22.46
2018-08-06T00:30:25.077Z,22.33
2018-08-06T00:32:53.601Z,22.30
2018-08-06T00:35:22.089Z,22.31
2018-08-06T00:37:50.653Z,22.22
2018-08-06T00:40:20.670Z,22.19
2018-08-06T00:42:49.697Z,22.24
2018-08-06T00:45:19.984Z,22.17
2018-08-06T00:47:49.181Z,22.06
2018-08-06T00:50:17.786Z,22.08
2018-08-06T00:52:46.417Z,21.97
2018-08-06T00:55:19.040Z,22.10
2018-08-06T00:57:47.639Z,22.11
2018-08-06T01:00:17.117Z,22.07
2018-08-06T01:02:45.687Z,21.99
2018-08-06T01:05:15.113Z,21.95
2018-08-06T01:07:44.247Z,21.93
2018-08-06T01:10:18.204Z,21.90
2018-08-06T01:12:46.815Z,21.89
2018-08-06T01:15:17.729Z,21.84
2018-08-06T01:17:46.381Z,21.85
2018-08-06T01:20:15.316Z,21.90
2018-08-06T01:22:44.640Z,21.91
2018-08-06T01:25:13.841Z,21.70
2018-08-06T01:27:42.428Z,21.67
2018-08-06T01:30:13.345Z,21.71
2018-08-06T01:32:42.049Z,21.71
2018-08-06T01:35:11.361Z,21.75
2018-08-06T01:37:39.966Z,21.72
2018-08-06T01:40:12.033Z,21.66
2018-08-06T01:42:40.841Z,21.70
2018-08-06T01:45:10.161Z,21.70
2018-08-06T01:47:39.018Z,21.76
2018-08-06T01:50:08.557Z,21.78
2018-08-06T01:52:37.235Z,21.64
2018-08-06T01:55:05.874Z,21.60
2018-08-06T01:57:34.629Z,21.58
2018-08-06T02:00:03.426Z,21.59
2018-08-06T02:02:32.031Z,21.42
2018-08-06T02:05:00.571Z,21.37
2018-08-06T02:07:29.223Z,21.38
2018-08-06T02:09:57.725Z,21.34
2018-08-06T02:12:26.368Z,21.40
2018-08-06T02:14:54.907Z,21.32
2018-08-06T02:17:23.723Z,21.33
2018-08-06T02:19:52.947Z,21.37
2018-08-06T02:22:22.572Z,21.40
2018-08-06T02:24:51.137Z,21.34
2018-08-06T02:27:19.721Z,21.38
2018-08-06T02:29:48.300Z,21.33
2018-08-06T02:32:16.825Z,21.23
2018-08-06T02:34:45.475Z,21.11
2018-08-06T02:37:14.069Z,21.04
2018-08-06T02:39:42.675Z,21.00
2018-08-06T02:42:11.187Z,21.01
2018-08-06T02:44:39.732Z,21.01
2018-08-06T02:47:08.277Z,20.97
2018-08-06T02:49:36.900Z,20.89
2018-08-06T02:52:05.885Z,20.83
2018-08-06T02:54:34.395Z,20.75
2018-08-06T02:57:02.949Z,20.67
2018-08-06T02:59:31.534Z,20.69
2018-08-06T03:02:00.118Z,20.77
2018-08-06T03:04:28.668Z,20.74
2018-08-06T03:06:57.297Z,20.74
2018-08-06T03:09:25.896Z,20.69
2018-08-06T03:11:54.444Z,20.75
2018-08-06T03:14:22.978Z,20.76
2018-08-06T03:16:51.566Z,20.79
2018-08-06T03:19:20.159Z,20.81
2018-08-06T03:21:48.759Z,20.77
2018-08-06T03:24:17.341Z,20.69
2018-08-06T03:26:45.905Z,20.71
2018-08-06T03:29:14.546Z,20.55
2018-08-06T03:31:43.056Z,20.45
2018-08-06T03:34:11.676Z,20.46
2018-08-06T03:36:40.281Z,20.43
2018-08-06T03:39:10.305Z,20.43
2018-08-06T03:41:38.976Z,20.39
2018-08-06T03:44:08.079Z,20.30
2018-08-06T03:46:36.899Z,20.24
2018-08-06T03:49:05.595Z,20.08
2018-08-06T03:51:34.179Z,20.09
2018-08-06T03:54:02.765Z,20.02
2018-08-06T03:56:31.288Z,20.01
2018-08-06T03:58:59.873Z,20.04
2018-08-06T04:01:28.610Z,20.07
2018-08-06T04:03:57.252Z,20.22
2018-08-06T04:06:25.874Z,20.31
2018-08-06T04:08:54.502Z,20.37
2018-08-06T04:11:23.193Z,20.43
2018-08-06T04:13:51.858Z,20.55
2018-08-06T04:16:20.538Z,20.64
2018-08-06T04:18:50.412Z,20.69
2018-08-06T04:21:19.744Z,20.60
2018-08-06T04:23:48.488Z,20.58
2018-08-06T04:26:17.156Z,20.67
2018-08-06T04:28:45.798Z,20.73
2018-08-06T04:31:14.443Z,20.79
2018-08-06T04:33:43.064Z,20.81
2018-08-06T04:36:11.662Z,21.01
2018-08-06T04:38:41.255Z,21.04
2018-08-06T04:41:09.942Z,20.91
2018-08-06T04:43:38.614Z,20.87
2018-08-06T04:46:07.349Z,20.99
2018-08-06T04:48:35.804Z,21.04
2018-08-06T04:51:04.457Z,21.10
2018-08-06T04:53:33.326Z,21.19
2018-08-06T04:56:01.951Z,21.24
2018-08-06T04:58:30.497Z,21.25
2018-08-06T05:00:59.042Z,21.36
2018-08-06T05:03:27.679Z,21.43
2018-08-06T05:05:56.249Z,21.49
2018-08-06T05:11:18.627Z,21.75
2018-08-06T05:13:47.341Z,21.78
2018-08-06T05:16:16.026Z,21.69
2018-08-06T05:18:44.663Z,21.88
2018-08-06T05:21:13.243Z,21.94
2018-08-06T05:23:51.503Z,21.95
2018-08-06T05:26:20.236Z,22.07
2018-08-06T05:28:49.558Z,22.28
2018-08-06T05:31:18.289Z,22.27
2018-08-06T05:33:46.872Z,22.41
2018-08-06T05:36:15.733Z,22.57
2018-08-06T05:38:44.370Z,22.71
2018-08-06T05:41:12.982Z,22.86
2018-08-06T05:43:41.742Z,23.06
2018-08-06T05:46:10.654Z,23.11
2018-08-06T05:48:40.066Z,23.26
2018-08-06T05:51:09.457Z,23.37
2018-08-06T05:53:38.053Z,23.52
2018-08-06T05:56:07.718Z,23.59
2018-08-06T05:58:36.358Z,23.63
2018-08-06T06:01:05.029Z,23.73
2018-08-06T06:03:33.570Z,23.99
2018-08-06T06:06:02.242Z,23.94
2018-08-06T06:08:30.906Z,24.14
2018-08-06T06:10:59.687Z,24.44
2018-08-06T06:13:28.335Z,24.58
2018-08-06T06:15:57.002Z,24.74
2018-08-06T06:18:25.682Z,24.72
2018-08-06T06:20:54.950Z,24.94
2018-08-06T06:23:23.566Z,25.14
2018-08-06T06:25:52.349Z,25.40
2018-08-06T06:28:21.036Z,25.58
2018-08-06T06:30:49.725Z,25.51
2018-08-06T06:33:18.541Z,25.84
2018-08-06T06:35:47.317Z,26.17
2018-08-06T06:38:16.225Z,26.41
2018-08-06T06:40:45.128Z,26.45
2018-08-06T06:43:14.276Z,26.71
2018-08-06T06:45:42.934Z,26.87
2018-08-06T06:48:11.718Z,27.15
2018-08-06T06:50:40.334Z,27.45
2018-08-06T06:53:09.554Z,27.66
2018-08-06T06:55:38.114Z,27.80
2018-08-06T06:58:07.023Z,28.02
2018-08-06T07:00:35.665Z,28.27
2018-08-06T07:03:04.454Z,28.25
2018-08-06T07:05:33.131Z,28.46
2018-08-06T07:08:01.686Z,28.46
2018-08-06T07:10:30.584Z,28.59
2018-08-06T07:12:59.227Z,28.61
2018-08-06T07:15:27.833Z,28.56
2018-08-06T07:17:56.442Z,28.41
2018-08-06T07:20:24.977Z,28.43
2018-08-06T07:22:53.591Z,28.70
2018-08-06T07:25:22.206Z,29.05
2018-08-06T07:27:50.769Z,28.89
2018-08-06T07:30:19.305Z,29.72
2018-08-06T07:32:47.910Z,30.21
2018-08-06T07:35:16.476Z,30.49
2018-08-06T07:37:45.098Z,31.18
2018-08-06T07:40:14.674Z,31.47
2018-08-06T07:42:43.268Z,31.77
2018-08-06T07:45:19.124Z,33.02
2018-08-06T07:47:48.417Z,34.08
2018-08-06T07:50:18.839Z,34.24
2018-08-06T07:52:47.609Z,35.16
2018-08-06T07:55:16.270Z,35.73
2018-08-06T07:57:44.890Z,35.23
2018-08-06T08:00:16.266Z,36.31
2018-08-06T08:02:44.853Z,37.77
2018-08-06T08:05:14.799Z,38.22
2018-08-06T08:07:46.849Z,39.85
2018-08-06T08:10:18.006Z,38.45
2018-08-06T08:12:47.136Z,36.28
2018-08-06T08:15:20.402Z,34.67
2018-08-06T08:17:49.045Z,35.45
2018-08-06T08:20:18.332Z,36.32
2018-08-06T08:22:49.079Z,38.33
2018-08-06T08:25:19.641Z,39.75
2018-08-06T08:27:48.277Z,40.61
2018-08-06T08:30:17.542Z,41.53
2018-08-06T08:32:46.168Z,41.19
2018-08-06T08:35:18.572Z,40.24
2018-08-06T08:37:52.082Z,39.94
2018-08-06T08:40:22.113Z,40.91
2018-08-06T08:42:53.713Z,40.81
2018-08-06T08:45:22.302Z,40.86
2018-08-06T08:47:50.919Z,41.05
2018-08-06T08:50:20.421Z,42.14
2018-08-06T08:52:49.135Z,42.24
2018-08-06T08:55:18.903Z,42.47
2018-08-06T08:57:47.460Z,43.42
2018-08-06T09:00:20.794Z,43.67
2018-08-06T09:02:50.709Z,42.60
2018-08-06T09:05:19.725Z,42.32
2018-08-06T09:07:48.965Z,39.81
2018-08-06T09:10:18.345Z,37.03
2018-08-06T09:12:47.478Z,35.97
2018-08-06T09:15:20.650Z,35.83
2018-08-06T09:17:49.210Z,37.87
2018-08-06T09:20:17.777Z,39.16
2018-08-06T09:22:46.920Z,38.32
2018-08-06T09:25:18.601Z,38.78
2018-08-06T09:27:50.194Z,41.77
2018-08-06T09:30:20.043Z,41.37
2018-08-06T09:33:03.106Z,42.12
2018-08-06T09:35:31.673Z,42.14
2018-08-06T09:38:00.188Z,43.56
2018-08-06T09:40:28.745Z,43.82
2018-08-06T09:42:57.301Z,42.25
2018-08-06T09:45:25.940Z,40.38
2018-08-06T09:47:54.976Z,40.89
2018-08-06T09:50:23.625Z,42.25
2018-08-06T09:52:53.142Z,42.09
2018-08-06T09:55:24.053Z,42.37
2018-08-06T09:57:52.963Z,40.57
2018-08-06T10:00:27.731Z,39.27
2018-08-06T10:02:57.620Z,37.58
2018-08-06T10:05:26.818Z,37.45
2018-08-06T10:07:55.327Z,38.07
2018-08-06T10:10:24.103Z,36.96
2018-08-06T10:12:52.632Z,36.13
2018-08-06T10:15:21.884Z,36.94
2018-08-06T10:17:51.990Z,37.04
2018-08-06T10:20:21.838Z,38.17
2018-08-06T10:22:50.674Z,40.16
2018-08-06T10:25:19.245Z,41.77
2018-08-06T10:27:48.279Z,41.15
2018-08-06T10:30:18.859Z,40.86
2018-08-06T10:32:48.330Z,39.38
2018-08-06T10:35:18.056Z,39.65
2018-08-06T10:37:46.568Z,38.55
2018-08-06T10:40:16.793Z,39.88
2018-08-06T10:42:45.749Z,41.14
2018-08-06T10:45:15.655Z,40.81
2018-08-06T10:47:44.232Z,38.92
2018-08-06T10:50:13.565Z,38.22
2018-08-06T10:52:42.062Z,36.50
2018-08-06T10:55:11.175Z,36.91
2018-08-06T10:57:41.194Z,36.40
2018-08-06T11:00:18.058Z,37.30
2018-08-06T11:02:47.054Z,39.45
2018-08-06T11:05:16.410Z,39.60
2018-08-06T11:07:44.966Z,39.01
2018-08-06T11:10:14.972Z,39.45
2018-08-06T11:12:43.534Z,40.79
2018-08-06T11:15:21.973Z,39.10
2018-08-06T11:17:50.561Z,37.16
2018-08-06T11:20:19.838Z,38.81
2018-08-06T11:22:48.351Z,38.66
2018-08-06T11:25:18.906Z,36.97
2018-08-06T11:27:47.595Z,36.49
2018-08-06T11:30:17.946Z,37.65
2018-08-06T11:32:47.461Z,38.55
2018-08-06T11:35:16.309Z,37.03
2018-08-06T11:37:44.845Z,38.12
2018-08-06T11:40:14.522Z,38.79
2018-08-06T11:42:43.874Z,38.46
2018-08-06T11:45:18.369Z,38.57
2018-08-06T11:47:46.926Z,38.28
2018-08-06T11:50:15.473Z,36.69
2018-08-06T11:52:47.991Z,37.34
2018-08-06T11:55:16.481Z,38.01
2018-08-06T11:57:45.003Z,37.06
2018-08-06T12:00:17.005Z,36.64
2018-08-06T12:02:46.753Z,37.02
2018-08-06T12:05:15.294Z,38.81
2018-08-06T12:07:43.827Z,40.07
2018-08-06T12:10:15.295Z,40.83
2018-08-06T12:12:45.830Z,40.91
2018-08-06T12:15:14.514Z,40.33
2018-08-06T12:17:43.442Z,39.33
2018-08-06T12:20:13.962Z,40.02
2018-08-06T12:22:45.343Z,38.08
2018-08-06T12:25:14.713Z,38.04
2018-08-06T12:27:43.723Z,38.32
2018-08-06T12:30:15.325Z,39.54
2018-08-06T12:32:47.130Z,40.24
2018-08-06T12:35:16.233Z,39.89
2018-08-06T12:37:45.632Z,39.74
2018-08-06T12:40:17.301Z,39.90
2018-08-06T12:42:45.827Z,37.08
2018-08-06T14:10:13.192Z,40.44
2018-08-06T14:12:41.681Z,40.33
2018-08-06T14:15:11.498Z,38.53
2018-08-06T14:17:40.958Z,37.49
2018-08-06T14:20:11.076Z,37.48
2018-08-06T14:22:39.561Z,38.36
2018-08-06T14:25:09.396Z,38.84
2018-08-06T14:27:38.166Z,40.43
2018-08-06T14:30:09.722Z,40.58
2018-08-06T14:32:38.238Z,40.63
2018-08-06T14:35:07.133Z,39.24
2018-08-06T14:37:35.660Z,39.43
2018-08-06T14:40:05.077Z,39.52
2018-08-06T14:42:33.572Z,37.55
2018-08-06T14:45:02.113Z,37.48
2018-08-06T14:47:30.640Z,38.04
2018-08-06T14:49:59.165Z,38.99
2018-08-06T14:52:27.641Z,39.62
2018-08-06T14:54:56.149Z,39.63
2018-08-06T14:57:24.661Z,39.76
2018-08-06T14:59:56.111Z,39.37
2018-08-06T15:02:24.676Z,38.09
2018-08-06T15:04:56.814Z,36.36
2018-08-06T15:07:25.373Z,34.98
2018-08-06T15:09:53.870Z,34.67
2018-08-06T15:12:22.346Z,35.05
2018-08-06T15:14:50.882Z,36.72
2018-08-06T15:17:19.383Z,38.13
2018-08-06T15:19:47.898Z,38.14
2018-08-06T15:22:16.449Z,38.98
2018-08-06T15:24:45.007Z,37.08
2018-08-06T15:27:14.006Z,35.50
2018-08-06T15:29:42.524Z,34.75
2018-08-06T15:32:11.085Z,35.06
2018-08-06T15:34:39.594Z,35.15
2018-08-06T15:37:08.098Z,35.54
2018-08-06T15:39:36.634Z,36.79
2018-08-06T15:42:05.196Z,37.82
2018-08-06T15:44:35.803Z,38.94
2018-08-06T15:47:04.291Z,39.04
2018-08-06T15:49:32.821Z,36.98
2018-08-06T15:52:01.331Z,36.06
2018-08-06T15:54:29.850Z,37.17
2018-08-06T15:56:58.334Z,37.85
2018-08-06T15:59:26.789Z,37.17
2018-08-06T16:01:55.299Z,36.60
2018-08-06T16:04:23.770Z,37.12
2018-08-06T16:06:52.292Z,37.28
2018-08-06T16:09:20.810Z,36.44
2018-08-06T16:11:49.391Z,35.77
2018-08-06T16:14:18.129Z,35.63
2018-08-06T16:16:46.659Z,35.79
2018-08-06T16:19:15.124Z,34.65
2018-08-06T16:21:43.631Z,34.50
2018-08-06T16:24:12.097Z,35.91
2018-08-06T16:26:40.593Z,36.99
2018-08-06T16:29:09.070Z,37.21
2018-08-06T16:31:37.573Z,37.94
2018-08-06T16:34:06.067Z,38.43
2018-08-06T16:36:34.681Z,38.62
2018-08-06T16:39:03.278Z,38.09
2018-08-06T16:41:31.758Z,36.76
2018-08-06T16:44:00.291Z,35.68
2018-08-06T16:46:28.773Z,34.55
2018-08-06T16:48:58.125Z,34.82
2018-08-06T16:51:26.667Z,35.27
2018-08-06T16:53:55.158Z,34.81
2018-08-06T16:56:23.655Z,34.95
2018-08-06T16:58:52.186Z,34.53
2018-08-06T17:01:20.753Z,34.37
2018-08-06T17:03:49.257Z,34.65
2018-08-06T17:06:17.835Z,34.48
2018-08-06T17:08:46.370Z,34.52
2018-08-06T17:11:14.933Z,34.44
2018-08-06T17:13:43.433Z,34.21
2018-08-06T17:16:12.177Z,34.09
2018-08-06T17:18:40.713Z,34.08
2018-08-06T17:21:09.278Z,33.90
2018-08-06T17:23:37.770Z,33.74
2018-08-06T17:26:06.354Z,33.65
2018-08-06T17:28:34.864Z,33.53
2018-08-06T17:31:03.423Z,33.55
2018-08-06T17:33:32.007Z,33.17
2018-08-06T17:36:00.550Z,33.33
2018-08-06T17:38:29.113Z,33.56
2018-08-06T17:40:57.628Z,33.44
2018-08-06T17:43:26.184Z,33.33
2018-08-06T17:45:54.738Z,33.13
2018-08-06T17:48:23.278Z,32.89
2018-08-06T17:50:51.755Z,32.13
2018-08-06T17:53:20.293Z,31.85
2018-08-06T17:55:48.952Z,31.50
2018-08-06T17:58:17.366Z,31.48
2018-08-06T18:00:45.850Z,31.30
2018-08-06T18:03:14.379Z,31.10
2018-08-06T18:05:42.901Z,31.00
2018-08-06T18:08:11.446Z,30.86
2018-08-06T18:10:40.654Z,30.85
2018-08-06T18:13:09.212Z,30.73
2018-08-06T18:15:37.781Z,30.57
2018-08-06T18:18:07.050Z,30.53
2018-08-06T18:20:35.534Z,30.40
2018-08-06T18:23:04.384Z,30.24
2018-08-06T18:25:32.862Z,30.09
2018-08-06T18:28:01.366Z,29.97
2018-08-06T18:30:29.818Z,29.81
2018-08-06T18:32:58.366Z,29.84
2018-08-06T18:35:26.861Z,29.71
2018-08-06T18:37:55.369Z,29.65
2018-08-06T18:40:24.443Z,29.53
2018-08-06T18:42:53.073Z,29.41
2018-08-06T18:45:22.193Z,29.23
2018-08-06T18:47:51.545Z,29.03
2018-08-06T18:50:20.501Z,28.95
2018-08-06T18:52:49.630Z,28.77
2018-08-06T18:55:18.593Z,28.68
2018-08-06T18:57:47.548Z,28.72
2018-08-06T19:00:20.313Z,28.57
2018-08-06T19:02:49.009Z,28.41
2018-08-06T19:05:17.563Z,28.25
2018-08-06T19:07:46.142Z,28.10
2018-08-06T19:10:14.667Z,28.05
2018-08-06T19:12:48.517Z,27.92
2018-08-06T19:15:17.010Z,27.82
2018-08-06T19:17:50.945Z,27.70
2018-08-06T19:20:19.480Z,27.66
2018-08-06T19:22:48.162Z,27.52
2018-08-06T19:25:21.874Z,27.52
2018-08-06T19:27:50.508Z,27.34
2018-08-06T19:30:19.027Z,27.23
2018-08-06T19:32:47.603Z,27.23
2018-08-06T19:35:16.248Z,27.15
2018-08-06T19:37:46.506Z,27.05
2018-08-06T19:40:15.298Z,26.96
2018-08-06T19:42:48.905Z,26.92
2018-08-06T19:45:17.458Z,26.89
2018-08-06T19:47:46.011Z,26.84
2018-08-06T19:50:50.389Z,26.81
2018-08-06T19:53:18.969Z,26.55
2018-08-06T19:55:52.752Z,26.46
2018-08-06T19:58:21.273Z,26.38
2018-08-06T20:00:49.993Z,26.34
2018-08-06T20:03:18.535Z,26.23
2018-08-06T20:05:47.073Z,26.12
2018-08-06T20:08:15.635Z,26.13
2018-08-06T20:10:44.235Z,26.16
2018-08-06T20:13:12.787Z,26.01
2018-08-06T20:15:41.394Z,25.87
2018-08-06T20:18:09.947Z,25.84
2018-08-06T20:20:38.563Z,25.82
2018-08-06T20:23:07.202Z,25.81
2018-08-06T20:25:35.750Z,25.68
2018-08-06T20:28:04.419Z,25.49
2018-08-06T20:30:32.984Z,25.47
2018-08-06T20:33:01.521Z,25.34
2018-08-06T20:35:30.143Z,25.33
2018-08-06T20:37:58.667Z,25.30
2018-08-06T20:40:27.249Z,25.26
2018-08-06T20:42:55.799Z,25.16
2018-08-06T20:45:24.370Z,25.11
2018-08-06T20:47:52.916Z,25.06
2018-08-06T20:50:22.645Z,24.93
2018-08-06T20:52:52.213Z,24.68
2018-08-06T20:55:20.830Z,24.50
2018-08-06T20:57:49.954Z,24.46
2018-08-06T21:00:21.616Z,24.30
2018-08-06T21:02:50.869Z,24.30
2018-08-06T21:05:19.524Z,24.32
2018-08-06T21:07:48.191Z,24.18
2018-08-06T21:10:17.549Z,24.22
2018-08-06T21:12:46.494Z,24.23
2018-08-06T21:15:15.718Z,24.24
2018-08-06T21:17:44.564Z,24.21
2018-08-06T21:20:14.381Z,24.17
2018-08-06T21:22:44.392Z,24.15
2018-08-06T21:25:13.331Z,24.10
2018-08-06T21:27:43.141Z,24.05
2018-08-06T21:30:14.084Z,23.93
2018-08-06T21:32:44.776Z,23.93
2018-08-06T21:35:13.385Z,23.91
2018-08-06T21:37:41.909Z,23.79
2018-08-06T21:40:10.565Z,23.69
2018-08-06T21:42:39.442Z,23.47
2018-08-06T21:45:07.938Z,23.32
2018-08-06T21:47:36.526Z,23.18
2018-08-06T21:50:06.408Z,23.05
2018-08-06T21:52:35.043Z,22.88
2018-08-06T21:55:03.600Z,22.86
2018-08-06T21:57:32.185Z,22.86
2018-08-06T22:00:00.743Z,22.79
2018-08-06T22:02:29.476Z,22.87
2018-08-06T22:04:58.041Z,22.76
2018-08-06T22:07:26.599Z,22.45
2018-08-06T22:09:55.125Z,22.37
2018-08-06T22:12:23.694Z,22.13
2018-08-06T22:14:52.631Z,22.20
2018-08-06T22:17:21.207Z,22.04
2018-08-06T22:19:49.699Z,22.06
2018-08-06T22:22:18.253Z,22.01
2018-08-06T22:24:46.930Z,21.97
2018-08-06T22:27:15.486Z,22.05
2018-08-06T22:29:44.026Z,22.17
2018-08-06T22:32:12.604Z,22.14
2018-08-06T22:34:41.169Z,22.18
2018-08-06T22:37:09.778Z,22.21
2018-08-06T22:39:38.291Z,22.23
2018-08-06T22:42:06.881Z,22.14
2018-08-06T22:44:35.406Z,22.06
2018-08-06T22:47:03.989Z,22.21
2018-08-06T22:49:32.605Z,22.28
2018-08-06T22:52:01.123Z,22.34
2018-08-06T22:54:29.679Z,22.31
2018-08-06T22:56:58.227Z,22.24
2018-08-06T22:59:26.762Z,22.25
2018-08-06T23:01:55.465Z,22.20
2018-08-06T23:04:24.476Z,22.26
2018-08-06T23:06:53.087Z,22.26
2018-08-06T23:09:21.595Z,22.21
2018-08-06T23:23:22.099Z,21.76
2018-08-06T23:25:50.609Z,21.76
2018-08-06T23:31:11.939Z,21.70
2018-08-06T23:33:40.515Z,21.69
2018-08-06T23:36:09.178Z,21.69
2018-08-06T23:38:37.822Z,21.70
2018-08-06T23:41:07.713Z,21.75
2018-08-06T23:43:36.432Z,21.75
2018-08-06T23:46:05.014Z,21.74
2018-08-06T23:48:33.896Z,21.75
2018-08-06T23:51:02.394Z,21.76
2018-08-06T23:53:30.971Z,21.73
2018-08-06T23:55:59.534Z,21.65
2018-08-06T23:58:28.222Z,21.70
